createdAt,value
2023-05-01T00:01:00.902Z,8.25
2023-05-01T00:03:28.458Z,13.25
2023-05-01T00:06:08.092Z,11.50
2023-05-01T00:08:35.675Z,15.00
2023-05-01T00:11:05.082Z,15.50
2023-05-01T00:13:32.740Z,14.25
2023-05-01T00:16:00.477Z,12.50
2023-05-01T00:18:30.512Z,12.75
2023-05-01T00:20:57.860Z,18.75
2023-05-01T00:23:25.791Z,15.00
2023-05-01T00:25:53.150Z,10.25
2023-05-01T00:28:21.211Z,17.50
2023-05-01T00:30:48.614Z,17.50
2023-05-01T00:33:16.394Z,16.50
2023-05-01T00:35:47.170Z,17.00
2023-05-01T00:38:14.620Z,12.50
2023-05-01T00:40:45.041Z,18.00
2023-05-01T00:43:13.020Z,17.00
2023-05-01T00:45:44.322Z,12.00
2023-05-01T00:48:12.332Z,10.75
2023-05-01T00:50:40.637Z,6.75
2023-05-01T00:53:07.997Z,8.50
2023-05-01T00:55:36.005Z,3.25
2023-05-01T00:58:04.814Z,7.00
2023-05-01T01:00:32.333Z,5.00
2023-05-01T01:02:59.942Z,3.75
2023-05-01T01:05:30.595Z,5.00
2023-05-01T01:08:10.677Z,7.00
2023-05-01T01:10:54.591Z,5.25
2023-05-01T01:13:32.696Z,3.75
2023-05-01T01:16:23.849Z,3.75
2023-05-01T01:19:14.448Z,5.25
2023-05-01T01:21:45.490Z,6.50
2023-05-01T01:24:34.660Z,4.00
2023-05-01T01:27:30.073Z,4.00
2023-05-01T01:30:22.240Z,4.75
2023-05-01T01:33:01.483Z,4.75
2023-05-01T01:35:31.748Z,3.25
2023-05-01T01:38:07.061Z,7.25
2023-05-01T01:40:44.056Z,6.00
2023-05-01T01:43:16.988Z,4.00
2023-05-01T01:45:49.910Z,10.25
2023-05-01T01:48:22.769Z,7.00
2023-05-01T01:50:53.155Z,13.50
2023-05-01T01:53:22.219Z,8.00
2023-05-01T01:55:52.317Z,20.75
2023-05-01T01:58:26.245Z,19.50
2023-05-01T02:00:55.595Z,26.25
2023-05-01T02:03:24.518Z,20.75
2023-05-01T02:05:56.081Z,21.00
2023-05-01T02:08:25.490Z,27.00
2023-05-01T02:11:01.684Z,26.00
2023-05-01T02:13:31.594Z,22.75
2023-05-01T02:16:00.027Z,22.50
2023-05-01T02:18:29.435Z,15.50
2023-05-01T02:21:01.180Z,24.50
2023-05-01T02:23:31.210Z,18.25
2023-05-01T02:26:03.048Z,14.25
2023-05-01T02:28:32.035Z,19.50
2023-05-01T02:30:59.836Z,17.75
2023-05-01T02:33:27.501Z,20.00
2023-05-01T02:35:54.888Z,20.50
2023-05-01T02:38:22.598Z,21.00
2023-05-01T02:40:53.490Z,14.50
2023-05-01T02:43:23.478Z,15.50
2023-05-01T02:45:52.320Z,19.75
2023-05-01T02:48:27.681Z,22.00
2023-05-01T02:50:56.835Z,14.75
2023-05-01T02:53:24.260Z,21.00
2023-05-01T02:55:51.768Z,18.50
2023-05-01T02:58:20.509Z,20.50
2023-05-01T03:00:51.032Z,18.50
2023-05-01T03:03:19.013Z,21.25
2023-05-01T03:05:47.704Z,19.75
2023-05-01T03:08:15.562Z,22.50
2023-05-01T03:10:43.381Z,19.50
2023-05-01T03:13:11.761Z,23.50
2023-05-01T03:15:39.565Z,23.50
2023-05-01T03:18:07.797Z,20.75
2023-05-01T03:20:35.421Z,12.75
2023-05-01T03:23:02.902Z,19.75
2023-05-01T03:25:30.334Z,17.75
2023-05-01T03:27:57.681Z,22.50
2023-05-01T03:30:25.089Z,20.25
2023-05-01T03:32:52.713Z,11.75
2023-05-01T03:35:20.069Z,20.00
2023-05-01T03:37:47.490Z,18.25
2023-05-01T03:40:15.202Z,18.50
2023-05-01T03:42:42.802Z,11.50
2023-05-01T03:45:11.168Z,13.25
2023-05-01T03:47:38.774Z,11.50
2023-05-01T03:50:06.846Z,16.00
2023-05-01T03:52:34.711Z,11.50
2023-05-01T03:55:02.249Z,10.25
2023-05-01T03:57:29.732Z,13.50
2023-05-01T03:59:57.873Z,11.50
2023-05-01T04:02:25.653Z,14.25
2023-05-01T04:04:53.155Z,5.25
2023-05-01T04:07:20.734Z,10.00
2023-05-01T04:09:48.567Z,10.75
2023-05-01T04:12:16.246Z,13.75
2023-05-01T04:14:44.596Z,8.50
2023-05-01T04:17:12.041Z,9.50
2023-05-01T04:19:39.458Z,8.25
2023-05-01T04:22:07.040Z,7.25
2023-05-01T04:24:34.504Z,6.00
2023-05-01T04:27:02.714Z,3.00
2023-05-01T04:29:30.141Z,6.25
2023-05-01T04:31:57.659Z,5.50
2023-05-01T04:34:25.670Z,10.00
2023-05-01T04:36:54.083Z,17.50
2023-05-01T04:39:23.987Z,13.50
2023-05-01T04:41:51.339Z,6.00
2023-05-01T04:44:18.659Z,4.75
2023-05-01T04:46:46.486Z,12.75
2023-05-01T04:49:14.579Z,5.50
2023-05-01T04:51:41.977Z,6.00
2023-05-01T04:54:09.563Z,6.75
2023-05-01T04:56:36.993Z,6.50
2023-05-01T04:59:04.326Z,5.50
2023-05-01T05:01:31.924Z,4.75
2023-05-01T05:03:59.642Z,4.25
2023-05-01T05:06:27.279Z,6.50
2023-05-01T05:08:55.889Z,5.25
2023-05-01T05:11:23.476Z,5.75
2023-05-01T05:13:50.863Z,5.00
2023-05-01T05:16:18.434Z,8.00
2023-05-01T05:18:45.856Z,7.00
2023-05-01T05:21:13.282Z,6.25
2023-05-01T05:23:41.246Z,4.00
2023-05-01T05:26:08.625Z,13.25
2023-05-01T05:28:36.076Z,8.75
2023-05-01T05:31:03.574Z,6.25
2023-05-01T05:33:31.070Z,6.25
2023-05-01T05:35:59.661Z,3.50
2023-05-01T05:38:27.523Z,6.25
2023-05-01T05:40:55.168Z,5.75
2023-05-01T05:43:23.660Z,4.25
2023-05-01T05:45:51.938Z,6.00
2023-05-01T05:48:19.928Z,12.25
2023-05-01T05:50:47.272Z,13.25
2023-05-01T05:53:14.786Z,8.00
2023-05-01T05:55:43.549Z,3.50
2023-05-01T05:58:11.416Z,5.25
2023-05-01T06:00:38.862Z,6.75
2023-05-01T06:03:07.310Z,7.25
2023-05-01T06:05:34.817Z,4.75
2023-05-01T06:08:02.281Z,5.25
2023-05-01T06:10:29.939Z,6.00
2023-05-01T06:12:59.817Z,6.00
2023-05-01T06:15:30.129Z,6.50
2023-05-01T06:17:57.515Z,7.00
2023-05-01T06:20:25.033Z,9.00
2023-05-01T06:22:52.458Z,9.00
2023-05-01T06:25:19.873Z,7.67
2023-05-01T06:27:47.772Z,9.50
2023-05-01T06:30:15.337Z,4.67
2023-05-01T06:32:44.050Z,5.33
2023-05-01T06:35:11.536Z,7.00
2023-05-01T06:37:39.158Z,6.00
2023-05-01T06:40:08.276Z,4.67
2023-05-01T06:42:39.809Z,7.33
2023-05-01T06:45:08.517Z,6.00
2023-05-01T06:47:36.297Z,9.00
2023-05-01T06:50:05.695Z,5.67
2023-05-01T06:52:34.069Z,8.00
2023-05-01T06:55:01.462Z,9.33
2023-05-01T06:57:29.565Z,6.67
2023-05-01T06:59:57.536Z,8.00
2023-05-01T07:02:26.035Z,3.75
2023-05-01T07:04:53.707Z,8.00
2023-05-01T07:07:21.149Z,8.00
2023-05-01T07:09:48.525Z,6.67
2023-05-01T07:12:16.270Z,4.67
2023-05-01T07:14:43.877Z,7.00
2023-05-01T07:17:11.373Z,6.00
2023-05-01T07:19:38.969Z,5.67
2023-05-01T07:22:06.327Z,5.33
2023-05-01T07:24:33.808Z,23.00
2023-05-01T07:27:01.257Z,7.50
2023-05-01T07:29:28.769Z,6.00
2023-05-01T07:31:56.183Z,6.50
2023-05-01T07:34:23.538Z,10.00
2023-05-01T07:36:50.949Z,6.00
2023-05-01T07:39:18.470Z,6.50
2023-05-01T07:41:45.951Z,7.00
2023-05-01T07:44:14.032Z,8.00
2023-05-01T07:46:41.889Z,6.75
2023-05-01T07:49:09.318Z,5.75
2023-05-01T07:51:36.756Z,24.75
2023-05-01T07:54:04.862Z,7.25
2023-05-01T07:56:32.684Z,5.00
2023-05-01T07:59:00.108Z,6.25
2023-05-01T08:01:27.722Z,4.75
2023-05-01T08:03:55.357Z,3.00
2023-05-01T08:06:22.938Z,3.50
2023-05-01T08:08:50.391Z,1.00
2023-05-01T08:11:17.801Z,4.75
2023-05-01T08:13:45.318Z,5.00
2023-05-01T08:16:12.836Z,4.00
2023-05-01T08:18:40.495Z,5.75
2023-05-01T08:21:07.955Z,6.00
2023-05-01T08:23:35.530Z,4.25
2023-05-01T08:26:02.946Z,4.50
2023-05-01T08:28:30.610Z,4.25
2023-05-01T08:30:58.119Z,5.75
2023-05-01T08:33:25.570Z,3.75
2023-05-01T08:35:53.090Z,3.00
2023-05-01T08:38:20.554Z,4.50
2023-05-01T08:40:53.261Z,5.75
2023-05-01T08:43:22.803Z,6.50
2023-05-01T08:45:51.802Z,6.00
2023-05-01T08:48:20.758Z,6.00
2023-05-01T08:50:49.755Z,4.50
2023-05-01T08:53:19.190Z,6.00
2023-05-01T08:55:48.087Z,8.75
2023-05-01T08:58:18.661Z,8.00
2023-05-01T09:00:47.364Z,8.00
2023-05-01T09:03:16.844Z,8.50
2023-05-01T09:05:44.707Z,7.50
2023-05-01T09:08:12.459Z,7.25
2023-05-01T09:10:44.552Z,10.50
2023-05-01T09:13:12.694Z,12.50
2023-05-01T09:15:40.434Z,7.75
2023-05-01T09:18:09.047Z,8.00
2023-05-01T09:20:37.503Z,7.25
2023-05-01T09:23:05.587Z,12.00
2023-05-01T09:25:33.546Z,6.00
2023-05-01T09:28:01.763Z,3.50
2023-05-01T09:30:37.763Z,4.25
2023-05-01T09:33:10.986Z,2.50
2023-05-01T09:35:59.880Z,2.25
2023-05-01T09:38:29.397Z,4.75
2023-05-01T09:41:04.532Z,1.25
2023-05-01T09:43:31.961Z,4.00
2023-05-01T09:46:01.291Z,4.00
2023-05-01T09:48:29.332Z,4.25
2023-05-01T09:50:56.685Z,4.00
2023-05-01T09:53:40.589Z,2.00
2023-05-01T09:56:08.072Z,4.00
2023-05-01T09:58:35.472Z,4.00
2023-05-01T10:01:03.044Z,3.75
2023-05-01T10:03:31.035Z,7.00
2023-05-01T10:06:00.955Z,2.75
2023-05-01T10:08:49.908Z,9.00
2023-05-01T10:11:17.278Z,4.75
2023-05-01T10:13:44.699Z,5.25
2023-05-01T10:16:34.471Z,6.50
2023-05-01T10:19:03.684Z,3.00
2023-05-01T10:21:33.609Z,1.75
2023-05-01T10:24:06.083Z,3.00
2023-05-01T10:26:37.721Z,3.00
2023-05-01T10:29:05.172Z,3.00
2023-05-01T10:31:33.301Z,1.25
2023-05-01T10:34:04.320Z,2.75
2023-05-01T10:36:46.693Z,1.00
2023-05-01T10:39:33.955Z,1.00
2023-05-01T10:42:08.590Z,2.75
2023-05-01T10:44:36.298Z,1.00
2023-05-01T10:47:42.968Z,3.50
2023-05-01T10:50:16.052Z,2.75
2023-05-01T10:53:17.683Z,5.25
2023-05-01T10:55:46.470Z,3.75
2023-05-01T10:58:35.547Z,4.25
2023-05-01T11:01:28.928Z,2.50
2023-05-01T11:03:57.431Z,3.25
2023-05-01T11:06:25.329Z,5.00
2023-05-01T11:08:53.492Z,3.00
2023-05-01T11:11:23.557Z,3.00
2023-05-01T11:14:04.309Z,5.00
2023-05-01T11:16:38.375Z,3.00
2023-05-01T11:19:07.953Z,4.25
2023-05-01T11:21:38.991Z,4.00
2023-05-01T11:24:08.048Z,4.00
2023-05-01T11:26:42.812Z,5.25
2023-05-01T11:29:11.770Z,9.00
2023-05-01T11:31:39.753Z,4.25
2023-05-01T11:34:07.397Z,5.50
2023-05-01T11:36:52.319Z,3.00
2023-05-01T11:39:20.569Z,6.00
2023-05-01T11:41:48.163Z,3.75
2023-05-01T11:44:17.428Z,3.50
2023-05-01T11:46:44.935Z,4.00
2023-05-01T11:49:12.497Z,3.00
2023-05-01T11:51:40.168Z,4.50
2023-05-01T11:54:15.125Z,4.75
2023-05-01T11:56:43.324Z,3.00
2023-05-01T11:59:20.325Z,5.25
2023-05-01T12:01:47.776Z,6.00
2023-05-01T12:04:25.199Z,4.75
2023-05-01T12:06:52.753Z,6.75
2023-05-01T12:09:25.520Z,3.25
2023-05-01T12:11:53.683Z,8.25
2023-05-01T12:14:22.174Z,8.75
2023-05-01T12:16:50.025Z,10.25
2023-05-01T12:19:18.365Z,6.75
2023-05-01T12:21:45.929Z,7.00
2023-05-01T12:24:17.492Z,7.25
2023-05-01T12:26:46.306Z,5.50
2023-05-01T12:29:13.859Z,6.25
2023-05-01T12:31:49.302Z,5.25
2023-05-01T12:34:17.088Z,6.00
2023-05-01T12:36:54.363Z,5.00
2023-05-01T12:39:23.626Z,8.00
2023-05-01T12:41:51.872Z,8.50
2023-05-01T12:44:27.045Z,4.25
2023-05-01T12:47:09.916Z,6.75
2023-05-01T12:49:37.957Z,7.00
2023-05-01T12:52:07.992Z,5.00
2023-05-01T12:54:40.098Z,3.75
2023-05-01T12:57:15.348Z,5.50
2023-05-01T12:59:45.267Z,5.50
2023-05-01T13:02:16.159Z,4.75
2023-05-01T13:04:44.533Z,9.25
2023-05-01T13:07:19.441Z,12.00
2023-05-01T13:09:54.791Z,4.00
2023-05-01T13:12:23.024Z,8.00
2023-05-01T13:14:51.463Z,4.75
2023-05-01T13:17:27.976Z,3.75
2023-05-01T13:19:57.321Z,6.50
2023-05-01T13:22:40.034Z,10.00
2023-05-01T13:25:20.194Z,6.00
2023-05-01T13:27:50.020Z,6.50
2023-05-01T13:30:30.783Z,3.75
2023-05-01T13:32:58.373Z,5.50
2023-05-01T13:35:27.246Z,11.25
2023-05-01T13:37:54.759Z,6.00
2023-05-01T13:40:26.255Z,8.00
2023-05-01T13:42:56.769Z,8.25
2023-05-01T13:45:25.005Z,5.00
2023-05-01T13:47:52.750Z,8.25
2023-05-01T13:50:20.274Z,7.25
2023-05-01T13:52:48.547Z,8.00
2023-05-01T13:55:17.849Z,8.50
2023-05-01T13:57:45.303Z,11.00
2023-05-01T14:00:19.921Z,9.00
2023-05-01T14:02:48.987Z,8.00
2023-05-01T14:05:20.608Z,7.75
2023-05-01T14:07:55.153Z,21.25
2023-05-01T14:10:26.435Z,3.50
2023-05-01T14:12:58.889Z,8.00
2023-05-01T14:15:28.831Z,5.00
2023-05-01T14:17:56.432Z,7.00
2023-05-01T14:20:27.158Z,9.75
2023-05-01T14:22:54.826Z,6.25
2023-05-01T14:25:24.968Z,11.50
2023-05-01T14:27:53.763Z,6.00
2023-05-01T14:30:34.897Z,4.00
2023-05-01T14:33:03.760Z,4.75
2023-05-01T14:35:32.100Z,6.75
2023-05-01T14:38:10.928Z,3.50
2023-05-01T14:40:40.500Z,4.25
2023-05-01T14:43:10.533Z,6.75
2023-05-01T14:45:42.740Z,6.50
2023-05-01T14:48:20.864Z,6.50
2023-05-01T14:50:48.272Z,5.75
2023-05-01T14:53:15.823Z,6.50
2023-05-01T14:55:43.564Z,7.00
2023-05-01T14:58:11.190Z,7.50
2023-05-01T15:00:38.620Z,10.75
2023-05-01T15:03:06.261Z,8.50
2023-05-01T15:05:34.518Z,10.25
2023-05-01T15:08:02.462Z,6.50
2023-05-01T15:10:31.827Z,6.00
2023-05-01T15:12:59.265Z,7.25
2023-05-01T15:15:26.948Z,8.25
2023-05-01T15:17:54.610Z,9.25
2023-05-01T15:20:23.221Z,11.25
2023-05-01T15:22:50.590Z,8.50
2023-05-01T15:25:18.178Z,14.00
2023-05-01T15:27:46.408Z,6.50
2023-05-01T15:30:15.222Z,6.50
2023-05-01T15:32:43.678Z,10.75
2023-05-01T15:35:11.341Z,12.75
2023-05-01T15:37:38.813Z,9.00
2023-05-01T15:40:07.048Z,10.75
2023-05-01T15:42:35.022Z,10.00
2023-05-01T15:45:03.578Z,8.00
2023-05-01T15:47:31.340Z,13.50
2023-05-01T15:49:59.033Z,10.00
2023-05-01T15:52:27.239Z,13.00
2023-05-01T15:54:55.103Z,6.25
2023-05-01T15:57:22.644Z,8.25
2023-05-01T15:59:54.042Z,12.25
2023-05-01T16:02:22.039Z,10.00
2023-05-01T16:04:49.741Z,12.50
2023-05-01T16:07:17.946Z,7.75
2023-05-01T16:09:45.547Z,11.33
2023-05-01T16:12:13.003Z,11.25
2023-05-01T16:14:43.496Z,7.50
2023-05-01T16:17:11.158Z,8.75
2023-05-01T16:19:39.331Z,6.50
2023-05-01T16:22:07.414Z,11.75
2023-05-01T16:24:36.247Z,8.25
2023-05-01T16:27:03.648Z,25.33
2023-05-01T16:29:35.311Z,17.00
2023-05-01T16:32:05.914Z,50.00
2023-05-01T16:34:33.501Z,17.75
2023-05-01T16:37:00.978Z,13.75
2023-05-01T16:39:28.681Z,10.00
2023-05-01T16:41:56.234Z,12.25
2023-05-01T16:44:23.833Z,13.50
2023-05-01T16:46:53.709Z,11.00
2023-05-01T16:49:25.229Z,12.25
2023-05-01T16:51:56.810Z,37.33
2023-05-01T16:54:25.257Z,19.50
2023-05-01T16:56:52.784Z,15.00
2023-05-01T16:59:20.357Z,13.50
2023-05-01T17:01:48.045Z,9.50
2023-05-01T17:04:15.663Z,12.50
2023-05-01T17:06:43.151Z,14.00
2023-05-01T17:09:10.903Z,13.00
2023-05-01T17:11:38.572Z,20.67
2023-05-01T17:14:06.150Z,11.67
2023-05-01T17:16:33.889Z,16.00
2023-05-01T17:19:04.433Z,17.00
2023-05-01T17:21:33.073Z,15.00
2023-05-01T17:24:00.408Z,13.00
2023-05-01T17:26:27.781Z,12.67
2023-05-01T17:28:55.427Z,13.67
2023-05-01T17:31:23.097Z,11.33
2023-05-01T17:33:50.609Z,17.67
2023-05-01T17:36:18.157Z,12.67
2023-05-01T17:38:45.645Z,17.33
2023-05-01T17:41:13.228Z,22.67
2023-05-01T17:43:41.717Z,47.75
2023-05-01T17:46:09.125Z,49.75
2023-05-01T17:48:37.003Z,58.75
2023-05-01T17:51:04.402Z,49.50
2023-05-01T17:53:31.812Z,48.50
2023-05-01T17:55:59.161Z,27.33
2023-05-01T17:58:26.538Z,31.50
2023-05-01T18:00:56.274Z,38.75
2023-05-01T18:03:25.130Z,36.75
2023-05-01T18:05:52.555Z,31.25
2023-05-01T18:08:20.439Z,28.67
2023-05-01T18:10:47.803Z,29.67
2023-05-01T18:13:16.878Z,23.33
2023-05-01T18:15:44.474Z,25.00
2023-05-01T18:18:13.286Z,28.00
2023-05-01T18:20:40.965Z,26.33
2023-05-01T18:23:08.482Z,31.33
2023-05-01T18:25:37.129Z,19.00
2023-05-01T18:28:04.530Z,20.33
2023-05-01T18:30:33.128Z,18.33
2023-05-01T18:33:00.725Z,22.33
2023-05-01T18:35:28.184Z,20.00
2023-05-01T18:37:55.774Z,24.33
2023-05-01T18:40:23.120Z,17.33
2023-05-01T18:42:50.723Z,21.67
2023-05-01T18:45:18.191Z,18.67
2023-05-01T18:47:45.681Z,29.67
2023-05-01T18:50:13.337Z,24.50
2023-05-01T18:52:42.318Z,20.00
2023-05-01T18:55:11.528Z,29.25
2023-05-01T18:57:41.838Z,25.25
2023-05-01T19:00:11.334Z,20.00
2023-05-01T19:02:39.435Z,20.25
2023-05-01T19:05:10.176Z,18.50
2023-05-01T19:07:37.635Z,22.25
2023-05-01T19:10:05.447Z,18.75
2023-05-01T19:12:33.224Z,21.25
2023-05-01T19:15:00.785Z,16.67
2023-05-01T19:17:28.315Z,19.67
2023-05-01T19:19:56.221Z,21.00
2023-05-01T19:22:24.229Z,29.75
2023-05-01T19:24:51.862Z,17.33
2023-05-01T19:27:19.426Z,20.00
2023-05-01T19:29:47.126Z,16.00
2023-05-01T19:32:14.829Z,18.00
2023-05-01T19:34:42.462Z,19.25
2023-05-01T19:37:10.033Z,17.00
2023-05-01T19:39:38.879Z,20.50
2023-05-01T19:42:06.526Z,13.00
2023-05-01T19:44:34.789Z,19.00
2023-05-01T19:47:02.287Z,17.50
2023-05-01T19:49:29.883Z,19.50
2023-05-01T19:51:57.778Z,16.50
2023-05-01T19:54:28.912Z,20.00
2023-05-01T19:56:57.180Z,13.75
2023-05-01T19:59:24.681Z,17.50
2023-05-01T20:01:52.272Z,19.50
2023-05-01T20:04:19.942Z,18.25
2023-05-01T20:06:47.570Z,19.00
2023-05-01T20:09:15.210Z,17.00
2023-05-01T20:11:42.745Z,20.00
2023-05-01T20:14:10.123Z,20.00
2023-05-01T20:16:37.547Z,16.75
2023-05-01T20:19:05.007Z,20.50
2023-05-01T20:21:32.893Z,19.75
2023-05-01T20:24:00.315Z,18.50
2023-05-01T20:26:27.777Z,20.00
2023-05-01T20:28:56.737Z,23.25
2023-05-01T20:31:24.223Z,28.75
2023-05-01T20:33:51.690Z,19.25
2023-05-01T20:36:20.208Z,22.25
2023-05-01T20:38:48.719Z,22.50
2023-05-01T20:41:16.189Z,21.25
2023-05-01T20:43:43.775Z,26.00
2023-05-01T20:46:11.194Z,27.50
2023-05-01T20:48:38.579Z,32.00
2023-05-01T20:51:06.174Z,24.00
2023-05-01T20:53:33.870Z,21.75
2023-05-01T20:56:01.275Z,30.75
2023-05-01T20:58:28.876Z,27.75
2023-05-01T21:00:56.483Z,25.75
2023-05-01T21:03:24.053Z,28.75
2023-05-01T21:05:51.717Z,28.50
2023-05-01T21:08:20.034Z,30.25
2023-05-01T21:10:47.450Z,35.25
2023-05-01T21:13:15.302Z,30.25
2023-05-01T21:15:42.881Z,32.75
2023-05-01T21:18:12.685Z,27.00
2023-05-01T21:20:41.260Z,26.50
2023-05-01T21:23:08.727Z,22.50
2023-05-01T21:25:36.616Z,31.50
2023-05-01T21:28:06.411Z,25.50
2023-05-01T21:30:36.956Z,27.75
2023-05-01T21:33:06.536Z,24.75
2023-05-01T21:35:34.540Z,27.00
2023-05-01T21:38:04.301Z,38.25
2023-05-01T21:40:37.447Z,31.75
2023-05-01T21:43:06.225Z,35.50
2023-05-01T21:45:40.070Z,36.00
2023-05-01T21:48:09.155Z,30.00
2023-05-01T21:50:40.629Z,32.00
2023-05-01T21:53:08.163Z,31.75
2023-05-01T21:55:35.702Z,33.75
2023-05-01T21:58:04.117Z,32.00
2023-05-01T22:00:31.998Z,38.75
2023-05-01T22:02:59.602Z,30.50
2023-05-01T22:05:31.114Z,34.50
2023-05-01T22:07:58.810Z,27.50
2023-05-01T22:10:26.398Z,33.00
2023-05-01T22:12:54.213Z,36.25
2023-05-01T22:15:21.726Z,35.75
2023-05-01T22:17:49.237Z,37.25
2023-05-01T22:20:16.788Z,42.50
2023-05-01T22:22:44.158Z,38.25
2023-05-01T22:25:12.193Z,39.75
2023-05-01T22:27:40.760Z,36.00
2023-05-01T22:30:08.591Z,41.00
2023-05-01T22:32:36.368Z,38.75
2023-05-01T22:35:04.137Z,36.00
2023-05-01T22:37:31.744Z,35.25
2023-05-01T22:39:59.895Z,34.25
2023-05-01T22:42:27.958Z,33.25
2023-05-01T22:44:55.386Z,38.00
2023-05-01T22:47:22.853Z,33.75
2023-05-01T22:49:50.300Z,42.50
2023-05-01T22:52:17.990Z,35.25
2023-05-01T22:54:45.524Z,31.00
2023-05-01T22:57:13.849Z,38.75
2023-05-01T22:59:41.276Z,37.50
2023-05-01T23:02:08.924Z,39.00
2023-05-01T23:04:36.966Z,27.75
2023-05-01T23:07:04.435Z,34.00
2023-05-01T23:09:32.513Z,29.00
2023-05-01T23:12:00.138Z,37.50
2023-05-01T23:14:27.622Z,34.00
2023-05-01T23:16:55.219Z,37.00
2023-05-01T23:19:24.133Z,34.25
2023-05-01T23:22:08.801Z,32.00
2023-05-01T23:24:48.448Z,36.50
2023-05-01T23:27:17.479Z,36.25
2023-05-01T23:29:59.383Z,28.25
2023-05-01T23:32:29.520Z,31.50
2023-05-01T23:35:15.160Z,33.50
2023-05-01T23:37:42.918Z,28.25
2023-05-01T23:40:10.693Z,28.50
2023-05-01T23:42:39.311Z,27.50
2023-05-01T23:45:07.896Z,24.75
2023-05-01T23:47:36.877Z,28.50
2023-05-01T23:50:04.963Z,24.00
2023-05-01T23:52:32.904Z,26.00
2023-05-01T23:55:00.256Z,28.00
2023-05-01T23:57:27.664Z,23.25
2023-05-01T23:59:55.564Z,26.75
